createdAt,value
2019-06-10T00:01:53.313Z,99811.00
2019-06-10T00:04:22.523Z,99797.00
2019-06-10T00:06:51.699Z,99798.00
2019-06-10T00:09:21.233Z,99788.00
2019-06-10T00:11:51.493Z,99787.00
2019-06-10T00:14:21.379Z,99785.00
2019-06-10T00:16:51.554Z,99785.00
2019-06-10T00:19:21.649Z,99781.00
2019-06-10T00:21:51.503Z,99780.00
2019-06-10T00:24:21.331Z,99771.00
2019-06-10T00:26:51.263Z,99773.00
2019-06-10T00:29:22.228Z,99773.00
2019-06-10T00:31:51.681Z,99777.00
2019-06-10T00:34:21.281Z,99776.00
2019-06-10T00:36:50.911Z,99770.00
2019-06-10T00:39:22.214Z,99771.00
2019-06-10T00:41:52.120Z,99764.00
2019-06-10T00:44:21.916Z,99757.00
2019-06-10T00:46:51.635Z,99742.00
2019-06-10T00:49:21.516Z,99749.00
2019-06-10T00:51:51.692Z,99745.00
2019-06-10T00:54:21.929Z,99733.00
2019-06-10T00:56:51.943Z,99736.00
2019-06-10T00:59:22.188Z,99733.00
2019-06-10T01:01:51.894Z,99727.00
2019-06-10T01:04:21.783Z,99729.00
2019-06-10T01:06:51.586Z,99732.00
2019-06-10T01:09:21.851Z,99736.00
2019-06-10T01:11:51.906Z,99728.00
2019-06-10T01:14:21.640Z,99723.00
2019-06-10T01:16:51.369Z,99725.00
2019-06-10T01:19:21.861Z,99720.00
2019-06-10T01:21:51.454Z,99729.00
2019-06-10T01:24:22.318Z,99733.00
2019-06-10T01:26:51.698Z,99726.00
2019-06-10T01:29:21.224Z,99731.00
2019-06-10T01:31:51.200Z,99721.00
2019-06-10T01:34:21.857Z,99714.00
2019-06-10T01:36:51.173Z,99721.00
2019-06-10T01:39:22.468Z,99726.00
2019-06-10T01:41:51.450Z,99721.00
2019-06-10T01:44:21.995Z,99711.00
2019-06-10T01:46:51.733Z,99701.00
2019-06-10T01:49:21.537Z,99700.00
2019-06-10T01:51:51.536Z,99696.00
2019-06-10T01:54:21.560Z,99692.00
2019-06-10T01:56:51.347Z,99682.00
2019-06-10T01:59:21.927Z,99678.00
2019-06-10T02:01:53.123Z,99692.00
2019-06-10T02:04:22.348Z,99691.00
2019-06-10T02:06:51.578Z,99685.00
2019-06-10T02:09:23.101Z,99675.00
2019-06-10T02:11:52.211Z,99677.00
2019-06-10T02:14:24.241Z,99686.00
2019-06-10T02:16:53.154Z,99681.00
2019-06-10T02:19:22.965Z,99689.00
2019-06-10T02:21:52.600Z,99674.00
2019-06-10T02:24:41.647Z,99652.00
2019-06-10T02:27:13.261Z,99630.00
2019-06-10T02:29:41.991Z,99633.00
2019-06-10T02:32:14.524Z,99637.00
2019-06-10T02:34:59.843Z,99625.00
2019-06-10T02:37:17.254Z,99628.00
2019-06-10T02:39:44.155Z,99622.00
2019-06-10T02:42:18.948Z,99630.00
2019-06-10T02:44:46.207Z,99626.00
2019-06-10T02:47:19.107Z,99622.00
2019-06-10T02:49:57.634Z,99620.00
2019-06-10T02:52:22.833Z,99608.00
2019-06-10T02:54:53.409Z,99605.00
2019-06-10T02:57:28.453Z,99614.00
2019-06-10T02:59:54.391Z,99606.00
2019-06-10T03:02:28.585Z,99604.00
2019-06-10T03:04:53.741Z,99603.00
2019-06-10T03:07:26.784Z,99604.00
2019-06-10T03:09:54.141Z,99608.00
2019-06-10T03:12:25.736Z,99604.00
2019-06-10T03:14:54.289Z,99607.00
2019-06-10T03:17:25.968Z,99594.00
2019-06-10T03:19:55.406Z,99591.00
2019-06-10T03:22:25.860Z,99589.00
2019-06-10T03:24:55.103Z,99594.00
2019-06-10T03:27:26.235Z,99597.00
2019-06-10T03:29:55.274Z,99587.00
2019-06-10T03:32:32.619Z,99597.00
2019-06-10T03:34:55.476Z,99598.00
2019-06-10T03:37:26.336Z,99599.00
2019-06-10T03:39:55.290Z,99599.00
2019-06-10T03:42:26.251Z,99605.00
2019-06-10T03:44:55.133Z,99618.00
2019-06-10T03:47:25.901Z,99608.00
2019-06-10T03:49:56.225Z,99616.00
2019-06-10T03:52:27.213Z,99619.00
2019-06-10T03:54:57.093Z,99613.00
2019-06-10T03:57:27.301Z,99602.00
2019-06-10T03:59:56.992Z,99608.00
2019-06-10T04:02:27.220Z,99624.00
2019-06-10T04:04:57.170Z,99631.00
2019-06-10T04:07:29.627Z,99624.00
2019-06-10T04:09:57.370Z,99611.00
2019-06-10T04:12:27.815Z,99611.00
2019-06-10T04:14:57.269Z,99602.00
2019-06-10T04:17:27.385Z,99604.00
2019-06-10T04:20:09.279Z,99597.00
2019-06-10T04:22:28.996Z,99612.00
2019-06-10T04:24:58.375Z,99612.00
2019-06-10T04:27:28.460Z,99619.00
2019-06-10T04:29:57.837Z,99608.00
2019-06-10T04:32:27.795Z,99610.00
2019-06-10T04:34:58.082Z,99597.00
2019-06-10T04:37:29.074Z,99594.00
2019-06-10T04:39:58.488Z,99584.00
2019-06-10T04:42:28.818Z,99564.00
2019-06-10T04:44:58.331Z,99580.00
2019-06-10T04:47:28.317Z,99601.00
2019-06-10T04:49:58.581Z,99605.00
2019-06-10T04:52:28.403Z,99613.00
2019-06-10T04:54:58.696Z,99622.00
2019-06-10T04:57:28.409Z,99606.00
2019-06-10T04:59:58.971Z,99597.00
2019-06-10T05:02:28.945Z,99590.00
2019-06-10T05:04:59.069Z,99586.00
2019-06-10T05:07:33.418Z,99583.00
2019-06-10T05:09:59.463Z,99580.00
2019-06-10T05:12:29.615Z,99574.00
2019-06-10T05:14:58.893Z,99580.00
2019-06-10T05:17:30.629Z,99583.00
2019-06-10T05:20:00.030Z,99583.00
2019-06-10T05:22:32.756Z,99591.00
2019-06-10T05:25:02.488Z,99589.00
2019-06-10T05:27:33.100Z,99590.00
2019-06-10T05:30:02.594Z,99589.00
2019-06-10T05:32:33.375Z,99597.00
2019-06-10T05:35:03.644Z,99601.00
2019-06-10T05:37:33.930Z,99607.00
2019-06-10T05:40:05.916Z,99608.00
2019-06-10T05:42:36.133Z,99608.00
2019-06-10T05:45:06.770Z,99596.00
2019-06-10T05:47:36.378Z,99599.00
2019-06-10T05:50:07.284Z,99598.00
2019-06-10T05:52:36.365Z,99602.00
2019-06-10T05:55:06.974Z,99598.00
2019-06-10T05:57:36.332Z,99605.00
2019-06-10T06:00:14.142Z,99601.00
2019-06-10T06:02:43.244Z,99601.00
2019-06-10T06:05:12.980Z,99601.00
2019-06-10T06:07:42.491Z,99590.00
2019-06-10T06:10:13.178Z,99583.00
2019-06-10T06:12:42.594Z,99586.00
2019-06-10T06:15:13.275Z,99586.00
2019-06-10T06:17:43.242Z,99589.00
2019-06-10T06:20:13.515Z,99584.00
2019-06-10T06:22:43.031Z,99582.00
2019-06-10T06:25:15.322Z,99583.00
2019-06-10T06:27:43.975Z,99588.00
2019-06-10T06:30:18.494Z,99589.00
2019-06-10T06:32:44.142Z,99589.00
2019-06-10T06:35:13.755Z,99585.00
2019-06-10T06:38:02.649Z,99592.00
2019-06-10T06:40:37.173Z,99588.00
2019-06-10T06:43:05.771Z,99588.00
2019-06-10T06:45:37.125Z,99593.00
2019-06-10T06:48:05.854Z,99587.00
2019-06-10T06:50:36.197Z,99587.00
2019-06-10T06:53:21.200Z,99591.00
2019-06-10T06:55:38.446Z,99593.00
2019-06-10T06:58:08.330Z,99589.00
2019-06-10T07:00:53.140Z,99586.00
2019-06-10T07:03:09.094Z,99586.00
2019-06-10T07:05:38.969Z,99587.00
2019-06-10T07:08:09.723Z,99594.00
2019-06-10T07:10:39.370Z,99577.00
2019-06-10T07:13:08.930Z,99582.00
2019-06-10T07:15:47.101Z,99582.00
2019-06-10T07:18:15.195Z,99586.00
2019-06-10T07:20:45.818Z,99578.00
2019-06-10T07:23:15.269Z,99581.00
2019-06-10T07:25:47.174Z,99584.00
2019-06-10T07:28:15.608Z,99586.00
2019-06-10T07:30:51.450Z,99582.00
2019-06-10T07:33:16.987Z,99585.00
2019-06-10T07:35:46.403Z,99579.00
2019-06-10T07:38:15.581Z,99576.00
2019-06-10T07:40:45.863Z,99579.00
2019-06-10T07:43:15.369Z,99580.00
2019-06-10T07:45:47.816Z,99572.00
2019-06-10T07:48:15.729Z,99571.00
2019-06-10T07:50:45.862Z,99566.00
2019-06-10T07:53:15.234Z,99565.00
2019-06-10T07:55:46.404Z,99561.00
2019-06-10T07:58:15.228Z,99571.00
2019-06-10T08:00:48.168Z,99562.00
2019-06-10T08:03:15.858Z,99560.00
2019-06-10T08:05:46.544Z,99564.00
2019-06-10T08:08:16.167Z,99565.00
2019-06-10T08:10:46.343Z,99573.00
2019-06-10T08:13:16.469Z,99572.00
2019-06-10T08:15:46.179Z,99571.00
2019-06-10T08:18:16.147Z,99566.00
2019-06-10T08:20:45.712Z,99567.00
2019-06-10T08:23:17.042Z,99569.00
2019-06-10T08:25:53.353Z,99560.00
2019-06-10T08:28:17.997Z,99573.00
2019-06-10T08:30:48.327Z,99565.00
2019-06-10T08:33:17.935Z,99571.00
2019-06-10T08:35:56.281Z,99579.00
2019-06-10T08:38:18.630Z,99581.00
2019-06-10T08:40:48.537Z,99575.00
2019-06-10T08:43:17.953Z,99567.00
2019-06-10T08:45:48.433Z,99568.00
2019-06-10T08:48:18.389Z,99572.00
2019-06-10T08:50:49.954Z,99571.00
2019-06-10T08:53:18.938Z,99577.00
2019-06-10T08:55:50.245Z,99584.00
2019-06-10T08:58:19.585Z,99594.00
2019-06-10T09:00:49.535Z,99597.00
2019-06-10T09:03:19.011Z,99602.00
2019-06-10T09:05:50.924Z,99595.00
2019-06-10T09:08:20.388Z,99596.00
2019-06-10T09:10:54.178Z,99591.00
2019-06-10T09:13:22.398Z,99591.00
2019-06-10T09:16:10.136Z,99590.00
2019-06-10T09:18:23.627Z,99590.00
2019-06-10T09:20:55.985Z,99582.00
2019-06-10T09:23:25.623Z,99588.00
2019-06-10T09:25:57.619Z,99598.00
2019-06-10T09:28:26.052Z,99598.00
2019-06-10T09:30:59.171Z,99596.00
2019-06-10T09:33:26.510Z,99593.00
2019-06-10T09:35:56.120Z,99601.00
2019-06-10T09:38:25.425Z,99602.00
2019-06-10T09:41:01.346Z,99595.00
2019-06-10T09:43:25.941Z,99600.00
2019-06-10T09:45:56.628Z,99598.00
2019-06-10T09:48:26.357Z,99594.00
2019-06-10T09:50:58.724Z,99594.00
2019-06-10T09:53:39.002Z,99598.00
2019-06-10T09:55:57.600Z,99606.00
2019-06-10T09:58:26.901Z,99609.00
2019-06-10T10:00:58.403Z,99602.00
2019-06-10T10:03:28.770Z,99609.00
2019-06-10T10:06:10.074Z,99606.00
2019-06-10T10:08:29.626Z,99602.00
2019-06-10T10:10:59.499Z,99604.00
2019-06-10T10:13:29.311Z,99600.00
2019-06-10T10:15:58.565Z,99597.00
2019-06-10T10:18:27.964Z,99598.00
2019-06-10T10:21:00.383Z,99603.00
2019-06-10T10:23:28.404Z,99597.00
2019-06-10T10:25:57.929Z,99606.00
2019-06-10T10:28:27.106Z,99609.00
2019-06-10T10:30:58.163Z,99603.00
2019-06-10T10:33:30.238Z,99608.00
2019-06-10T10:35:59.632Z,99608.00
2019-06-10T10:38:29.131Z,99606.00
2019-06-10T10:40:59.297Z,99605.00
2019-06-10T10:43:34.013Z,99600.00
2019-06-10T10:46:04.159Z,99599.00
2019-06-10T10:48:33.294Z,99592.00
2019-06-10T10:51:03.440Z,99587.00
2019-06-10T10:53:33.369Z,99576.00
2019-06-10T10:56:03.482Z,99582.00
2019-06-10T10:58:33.489Z,99576.00
2019-06-10T11:01:04.011Z,99568.00
2019-06-10T11:03:34.461Z,99566.00
2019-06-10T11:06:03.948Z,99563.00
2019-06-10T11:08:33.989Z,99555.00
2019-06-10T11:11:05.707Z,99551.00
2019-06-10T11:13:37.922Z,99550.00
2019-06-10T11:16:07.613Z,99551.00
2019-06-10T11:18:37.186Z,99542.00
2019-06-10T11:21:06.740Z,99545.00
2019-06-10T11:23:36.447Z,99545.00
2019-06-10T11:26:06.252Z,99533.00
2019-06-10T11:28:35.744Z,99531.00
2019-06-10T11:31:06.076Z,99516.00
2019-06-10T11:33:35.587Z,99511.00
2019-06-10T11:36:04.998Z,99518.00
2019-06-10T11:38:34.500Z,99514.00
2019-06-10T11:41:03.906Z,99516.00
2019-06-10T11:43:33.441Z,99512.00
2019-06-10T11:46:07.072Z,99511.00
2019-06-10T11:48:34.056Z,99509.00
2019-06-10T11:51:04.563Z,99503.00
2019-06-10T11:53:34.853Z,99505.00
2019-06-10T11:56:04.852Z,99502.00
2019-06-10T11:58:34.134Z,99495.00
2019-06-10T12:01:04.108Z,99493.00
2019-06-10T12:03:33.867Z,99483.00
2019-06-10T12:06:05.442Z,99473.00
2019-06-10T12:08:34.410Z,99467.00
2019-06-10T12:11:03.929Z,99470.00
2019-06-10T12:13:34.618Z,99471.00
2019-06-10T12:16:51.494Z,99475.00
2019-06-10T12:18:36.037Z,99468.00
2019-06-10T12:21:05.675Z,99466.00
2019-06-10T12:23:34.943Z,99461.00
2019-06-10T12:26:05.230Z,99455.00
2019-06-10T12:28:34.871Z,99448.00
2019-06-10T12:31:07.124Z,99441.00
2019-06-10T12:33:35.314Z,99447.00
2019-06-10T12:36:07.245Z,99444.00
2019-06-10T12:38:36.375Z,99447.00
2019-06-10T12:41:09.727Z,99436.00
2019-06-10T12:43:36.824Z,99427.00
2019-06-10T12:46:06.324Z,99424.00
2019-06-10T12:48:35.837Z,99420.00
2019-06-10T12:51:09.002Z,99421.00
2019-06-10T12:53:36.384Z,99415.00
2019-06-10T12:56:10.707Z,99413.00
2019-06-10T12:58:36.932Z,99411.00
2019-06-10T13:01:07.930Z,99408.00
2019-06-10T13:03:37.588Z,99400.00
2019-06-10T13:06:09.045Z,99400.00
2019-06-10T13:08:37.617Z,99405.00
2019-06-10T13:11:08.191Z,99397.00
2019-06-10T13:13:37.860Z,99399.00
2019-06-10T13:16:09.162Z,99399.00
2019-06-10T13:18:38.498Z,99386.00
2019-06-10T13:21:13.108Z,99382.00
2019-06-10T13:23:38.552Z,99386.00
2019-06-10T13:26:12.434Z,99380.00
2019-06-10T13:28:39.398Z,99370.00
2019-06-10T13:31:10.221Z,99361.00
2019-06-10T13:33:42.633Z,99367.00
2019-06-10T13:36:11.489Z,99362.00
2019-06-10T13:38:42.755Z,99362.00
2019-06-10T13:41:12.474Z,99358.00
2019-06-10T13:43:43.499Z,99358.00
2019-06-10T13:46:13.120Z,99357.00
2019-06-10T13:48:43.289Z,99349.00
2019-06-10T13:51:15.481Z,99346.00
2019-06-10T13:53:46.195Z,99340.00
2019-06-10T13:56:37.983Z,99344.00
2019-06-10T13:58:46.522Z,99352.00
2019-06-10T14:01:21.624Z,99352.00
2019-06-10T14:03:47.541Z,99346.00
2019-06-10T14:06:33.394Z,99339.00
2019-06-10T14:08:47.879Z,99341.00
2019-06-10T14:11:18.697Z,99331.00
2019-06-10T14:13:48.033Z,99326.00
2019-06-10T14:16:17.743Z,99327.00
2019-06-10T14:18:47.147Z,99328.00
2019-06-10T14:21:18.490Z,99330.00
2019-06-10T14:23:48.302Z,99327.00
2019-06-10T14:26:25.597Z,99321.00
2019-06-10T14:28:48.779Z,99318.00
2019-06-10T14:31:38.641Z,99317.00
2019-06-10T14:33:49.395Z,99319.00
2019-06-10T14:36:18.921Z,99320.00
2019-06-10T14:38:48.216Z,99317.00
2019-06-10T14:41:17.518Z,99320.00
2019-06-10T14:43:46.818Z,99322.00
2019-06-10T14:46:17.554Z,99319.00
2019-06-10T14:49:25.361Z,99312.00
2019-06-10T14:51:54.854Z,99320.00
2019-06-10T14:54:24.365Z,99321.00
2019-06-10T14:56:57.221Z,99310.00
2019-06-10T14:59:24.834Z,99305.00
2019-06-10T15:01:54.023Z,99309.00
2019-06-10T15:04:23.318Z,99296.00
2019-06-10T15:06:53.903Z,99295.00
2019-06-10T15:09:23.450Z,99300.00
2019-06-10T15:11:53.165Z,99290.00
2019-06-10T15:14:23.305Z,99285.00
2019-06-10T15:16:53.565Z,99279.00
2019-06-10T15:19:28.692Z,99260.00
2019-06-10T15:21:54.165Z,99260.00
2019-06-10T15:24:23.959Z,99254.00
2019-06-10T15:27:08.392Z,99259.00
2019-06-10T15:29:24.322Z,99247.00
2019-06-10T15:32:08.908Z,99245.00
2019-06-10T15:34:24.339Z,99238.00
2019-06-10T15:36:53.862Z,99255.00
2019-06-10T15:39:24.221Z,99251.00
2019-06-10T15:41:53.994Z,99260.00
2019-06-10T15:44:49.745Z,99251.00
2019-06-10T15:47:18.812Z,99249.00
2019-06-10T15:49:45.247Z,99246.00
2019-06-10T15:52:17.498Z,99247.00
2019-06-10T15:54:45.703Z,99240.00
2019-06-10T15:57:30.646Z,99241.00
2019-06-10T15:59:45.844Z,99240.00
2019-06-10T16:02:18.233Z,99243.00
2019-06-10T16:04:46.293Z,99248.00
2019-06-10T16:07:16.222Z,99251.00
2019-06-10T16:09:46.736Z,99256.00
2019-06-10T16:12:17.774Z,99253.00
2019-06-10T16:14:47.285Z,99250.00
2019-06-10T16:17:17.459Z,99259.00
2019-06-10T16:19:47.420Z,99256.00
2019-06-10T16:22:24.932Z,99251.00
2019-06-10T16:24:53.707Z,99250.00
2019-06-10T16:27:40.533Z,99250.00
2019-06-10T16:29:54.465Z,99251.00
2019-06-10T16:32:26.423Z,99250.00
2019-06-10T16:34:54.601Z,99248.00
2019-06-10T16:37:25.772Z,99255.00
2019-06-10T16:39:55.559Z,99262.00
2019-06-10T16:42:26.351Z,99261.00
2019-06-10T16:44:56.408Z,99257.00
2019-06-10T16:47:27.221Z,99255.00
2019-06-10T16:49:56.762Z,99251.00
2019-06-10T16:52:27.521Z,99250.00
2019-06-10T16:54:57.009Z,99259.00
2019-06-10T16:57:27.277Z,99263.00
2019-06-10T16:59:56.730Z,99267.00
2019-06-10T17:02:26.843Z,99266.00
2019-06-10T17:04:58.378Z,99271.00
2019-06-10T17:07:29.198Z,99269.00
2019-06-10T17:09:58.752Z,99271.00
2019-06-10T17:12:28.155Z,99269.00
2019-06-10T17:14:57.455Z,99278.00
2019-06-10T17:17:28.229Z,99279.00
2019-06-10T17:20:30.263Z,99270.00
2019-06-10T17:23:03.189Z,99271.00
2019-06-10T17:25:33.768Z,99277.00
2019-06-10T17:28:17.854Z,99266.00
2019-06-10T17:30:34.827Z,99257.00
2019-06-10T17:33:04.514Z,99252.00
2019-06-10T17:35:36.787Z,99244.00
2019-06-10T17:38:05.002Z,99242.00
2019-06-10T17:40:35.469Z,99233.00
2019-06-10T17:43:04.727Z,99236.00
2019-06-10T17:45:34.235Z,99234.00
2019-06-10T17:48:03.829Z,99229.00
2019-06-10T17:50:34.127Z,99232.00
2019-06-10T17:53:15.752Z,99232.00
2019-06-10T17:55:45.060Z,99236.00
2019-06-10T17:58:14.573Z,99239.00
2019-06-10T18:00:44.061Z,99241.00
2019-06-10T18:03:13.813Z,99237.00
2019-06-10T18:05:43.087Z,99220.00
2019-06-10T18:08:13.108Z,99214.00
2019-06-10T18:10:43.537Z,99214.00
2019-06-10T18:13:16.679Z,99222.00
2019-06-10T18:15:44.789Z,99232.00
2019-06-10T18:18:14.301Z,99220.00
2019-06-10T18:20:44.515Z,99217.00
2019-06-10T18:23:14.136Z,99218.00
2019-06-10T18:25:43.531Z,99222.00
2019-06-10T18:28:13.038Z,99220.00
2019-06-10T18:30:43.444Z,99215.00
2019-06-10T18:33:12.974Z,99204.00
2019-06-10T18:35:42.479Z,99197.00
2019-06-10T18:38:12.743Z,99176.00
2019-06-10T18:41:03.149Z,99169.00
2019-06-10T18:43:35.263Z,99164.00
2019-06-10T18:46:04.067Z,99182.00
2019-06-10T18:48:36.155Z,99205.00
2019-06-10T18:51:04.734Z,99231.00
2019-06-10T18:53:36.314Z,99245.00
2019-06-10T18:56:12.878Z,99252.00
2019-06-10T18:58:42.555Z,99245.00
2019-06-10T19:01:12.572Z,99231.00
2019-06-10T19:03:43.103Z,99247.00
2019-06-10T19:06:13.013Z,99271.00
2019-06-10T19:08:44.313Z,99290.00
2019-06-10T19:11:13.982Z,99299.00
2019-06-10T19:13:43.695Z,99305.00
2019-06-10T19:16:13.649Z,99308.00
2019-06-10T19:18:43.357Z,99316.00
2019-06-10T19:21:16.699Z,99325.00
2019-06-10T19:23:46.315Z,99316.00
2019-06-10T19:26:15.815Z,99333.00
2019-06-10T19:28:53.261Z,99355.00
2019-06-10T19:31:22.047Z,99353.00
2019-06-10T19:33:51.997Z,99313.00
2019-06-10T19:36:23.163Z,99312.00
2019-06-10T19:38:55.035Z,99320.00
2019-06-10T19:41:24.844Z,99314.00
2019-06-10T19:43:54.355Z,99290.00
2019-06-10T19:46:23.766Z,99268.00
2019-06-10T19:48:59.584Z,99259.00
2019-06-10T19:51:24.417Z,99277.00
2019-06-10T19:53:53.718Z,99275.00
2019-06-10T19:56:26.424Z,99270.00
2019-06-10T19:58:54.268Z,99255.00
2019-06-10T20:01:24.068Z,99238.00
2019-06-10T20:03:53.484Z,99224.00
2019-06-10T20:06:22.994Z,99179.00
2019-06-10T20:08:52.384Z,99155.00
2019-06-10T20:11:22.908Z,99140.00
2019-06-10T20:13:53.206Z,99131.00
2019-06-10T20:16:22.766Z,99141.00
2019-06-10T20:18:53.627Z,99142.00
2019-06-10T20:21:23.405Z,99148.00
2019-06-10T20:23:53.136Z,99134.00
2019-06-10T20:26:23.136Z,99127.00
2019-06-10T20:28:55.336Z,99121.00
2019-06-10T20:31:23.787Z,99124.00
2019-06-10T20:33:53.292Z,99140.00
2019-06-10T20:36:26.908Z,99135.00
2019-06-10T20:38:53.751Z,99129.00
2019-06-10T20:41:23.038Z,99124.00
2019-06-10T20:43:55.346Z,99123.00
2019-06-10T20:46:23.721Z,99115.00
2019-06-10T20:48:54.574Z,99123.00
2019-06-10T20:51:27.064Z,99109.00
2019-06-10T20:53:55.485Z,99114.00
2019-06-10T20:56:24.963Z,99114.00
2019-06-10T20:58:54.367Z,99110.00
2019-06-10T21:01:25.133Z,99093.00
2019-06-10T21:03:54.476Z,99096.00
2019-06-10T21:06:24.762Z,99091.00
2019-06-10T21:08:56.153Z,99090.00
2019-06-10T21:11:25.586Z,99082.00
2019-06-10T21:13:55.785Z,99083.00
2019-06-10T21:16:25.482Z,99082.00
2019-06-10T21:18:55.624Z,99081.00
2019-06-10T21:21:25.303Z,99083.00
2019-06-10T21:23:54.733Z,99104.00
2019-06-10T21:26:24.005Z,99113.00
2019-06-10T21:28:55.079Z,99128.00
2019-06-10T21:31:24.769Z,99151.00
2019-06-10T21:33:55.817Z,99158.00
2019-06-10T21:36:24.903Z,99181.00
2019-06-10T21:38:55.629Z,99185.00
2019-06-10T21:41:25.415Z,99183.00
2019-06-10T21:43:59.188Z,99185.00
2019-06-10T21:46:25.678Z,99205.00
2019-06-10T21:48:55.872Z,99213.00
2019-06-10T21:51:25.770Z,99208.00
2019-06-10T21:53:55.386Z,99211.00
2019-06-10T21:56:25.042Z,99226.00
2019-06-10T21:58:55.696Z,99235.00
2019-06-10T22:01:25.163Z,99241.00
2019-06-10T22:04:00.785Z,99245.00
2019-06-10T22:06:25.520Z,99235.00
2019-06-10T22:08:56.633Z,99238.00
2019-06-10T22:11:26.100Z,99242.00
2019-06-10T22:13:56.344Z,99238.00
2019-06-10T22:16:25.997Z,99239.00
2019-06-10T22:18:55.229Z,99240.00
2019-06-10T22:21:24.605Z,99229.00
2019-06-10T22:23:56.894Z,99223.00
2019-06-10T22:26:25.194Z,99206.00
2019-06-10T22:28:57.185Z,99214.00
2019-06-10T22:31:26.479Z,99206.00
2019-06-10T22:33:57.695Z,99190.00
2019-06-10T22:36:27.149Z,99183.00
2019-06-10T22:38:58.964Z,99169.00
2019-06-10T22:41:27.383Z,99163.00
2019-06-10T22:43:57.590Z,99150.00
2019-06-10T22:46:26.978Z,99153.00
2019-06-10T22:48:56.841Z,99158.00
2019-06-10T22:51:26.419Z,99165.00
2019-06-10T22:53:58.206Z,99167.00
2019-06-10T22:56:27.052Z,99168.00
2019-06-10T22:58:57.331Z,99177.00
2019-06-10T23:01:34.249Z,99170.00
2019-06-10T23:03:58.034Z,99159.00
2019-06-10T23:06:27.431Z,99158.00
2019-06-10T23:08:58.105Z,99141.00
2019-06-10T23:11:28.040Z,99142.00
2019-06-10T23:13:58.433Z,99138.00
2019-06-10T23:16:28.664Z,99150.00
2019-06-10T23:18:58.686Z,99145.00
2019-06-10T23:21:29.066Z,99136.00
2019-06-10T23:23:58.595Z,99136.00
2019-06-10T23:26:28.168Z,99141.00
2019-06-10T23:28:58.737Z,99149.00
2019-06-10T23:31:28.150Z,99147.00
2019-06-10T23:33:57.558Z,99156.00
2019-06-10T23:36:26.754Z,99160.00
2019-06-10T23:38:57.074Z,99175.00
2019-06-10T23:41:26.542Z,99174.00
2019-06-10T23:43:57.121Z,99174.00
2019-06-10T23:46:26.311Z,99186.00
2019-06-10T23:48:55.545Z,99193.00
2019-06-10T23:51:24.674Z,99211.00
2019-06-10T23:53:57.307Z,99206.00
2019-06-10T23:56:25.540Z,99201.00
2019-06-10T23:58:55.991Z,99207.00
